sensor_id;sensor_type;location;lat;lon;timestamp;pressure;altitude;pressure_sealevel;temperature;humidity
10167;BME280;62970;53.130;8.244;2022-09-13T00:01:33;100971.19;;;17.05;55.38
10167;BME280;62970;53.130;8.244;2022-09-13T00:04:02;100968.56;;;17.05;55.95
10167;BME280;62970;53.130;8.244;2022-09-13T00:06:32;100964.22;;;17.04;56.04
10167;BME280;62970;53.130;8.244;2022-09-13T00:09:00;100977.38;;;17.04;56.40
10167;BME280;62970;53.130;8.244;2022-09-13T00:11:30;100972.25;;;17.01;56.37
10167;BME280;62970;53.130;8.244;2022-09-13T00:14:02;100966.22;;;16.99;56.50
10167;BME280;62970;53.130;8.244;2022-09-13T00:16:32;100962.81;;;16.97;56.06
10167;BME280;62970;53.130;8.244;2022-09-13T00:19:01;100964.66;;;16.95;56.47
10167;BME280;62970;53.130;8.244;2022-09-13T00:21:30;100951.63;;;16.92;56.50
10167;BME280;62970;53.130;8.244;2022-09-13T00:23:59;100966.56;;;16.91;56.74
10167;BME280;62970;53.130;8.244;2022-09-13T00:26:29;100969.28;;;16.90;57.27
10167;BME280;62970;53.130;8.244;2022-09-13T00:29:01;100955.34;;;16.88;57.46
10167;BME280;62970;53.130;8.244;2022-09-13T00:31:30;100951.00;;;16.87;57.11
10167;BME280;62970;53.130;8.244;2022-09-13T00:33:59;100950.13;;;16.86;57.53
10167;BME280;62970;53.130;8.244;2022-09-13T00:36:29;100941.47;;;16.84;58.01
10167;BME280;62970;53.130;8.244;2022-09-13T00:38:59;100939.75;;;16.83;57.95
10167;BME280;62970;53.130;8.244;2022-09-13T00:41:28;100932.00;;;16.80;58.33
10167;BME280;62970;53.130;8.244;2022-09-13T00:44:03;100935.69;;;16.76;58.20
10167;BME280;62970;53.130;8.244;2022-09-13T00:46:36;100927.88;;;16.75;58.28
10167;BME280;62970;53.130;8.244;2022-09-13T00:49:13;100918.34;;;16.72;58.16
10167;BME280;62970;53.130;8.244;2022-09-13T00:51:49;100919.34;;;16.70;58.60
10167;BME280;62970;53.130;8.244;2022-09-13T00:54:24;100922.03;;;16.68;58.38
10167;BME280;62970;53.130;8.244;2022-09-13T00:56:58;100914.28;;;16.65;58.18
10167;BME280;62970;53.130;8.244;2022-09-13T00:59:36;100931.84;;;16.65;58.50
10167;BME280;62970;53.130;8.244;2022-09-13T01:02:06;100919.69;;;16.62;58.86
10167;BME280;62970;53.130;8.244;2022-09-13T01:04:36;100921.47;;;16.62;58.64
10167;BME280;62970;53.130;8.244;2022-09-13T01:07:09;100919.84;;;16.59;58.64
10167;BME280;62970;53.130;8.244;2022-09-13T01:09:42;100919.91;;;16.57;59.01
10167;BME280;62970;53.130;8.244;2022-09-13T01:12:23;100915.63;;;16.55;58.71
10167;BME280;62970;53.130;8.244;2022-09-13T01:17:31;100912.25;;;16.51;59.05
10167;BME280;62970;53.130;8.244;2022-09-13T01:20:03;100901.72;;;16.51;59.39
10167;BME280;62970;53.130;8.244;2022-09-13T01:23:15;100887.84;;;16.48;58.67
10167;BME280;62970;53.130;8.244;2022-09-13T01:32:31;100874.13;;;16.41;59.39
10167;BME280;62970;53.130;8.244;2022-09-13T01:35:14;100869.84;;;16.39;59.02
10167;BME280;62970;53.130;8.244;2022-09-13T01:37:50;100860.25;;;16.38;59.30
10167;BME280;62970;53.130;8.244;2022-09-13T01:40:37;100856.84;;;16.36;59.68
10167;BME280;62970;53.130;8.244;2022-09-13T01:43:39;100858.63;;;16.35;59.41
10167;BME280;62970;53.130;8.244;2022-09-13T01:46:16;100860.41;;;16.35;59.81
10167;BME280;62970;53.130;8.244;2022-09-13T01:49:11;100857.91;;;16.32;59.82
10167;BME280;62970;53.130;8.244;2022-09-13T01:51:46;100846.53;;;16.31;59.72
10167;BME280;62970;53.130;8.244;2022-09-13T01:54:19;100848.31;;;16.31;60.17
10167;BME280;62970;53.130;8.244;2022-09-13T01:56:54;100848.31;;;16.31;59.90
10167;BME280;62970;53.130;8.244;2022-09-13T01:59:35;100848.38;;;16.29;59.84
10167;BME280;62970;53.130;8.244;2022-09-13T02:02:10;100848.38;;;16.29;59.97
10167;BME280;62970;53.130;8.244;2022-09-13T02:04:49;100843.13;;;16.29;60.32
10167;BME280;62970;53.130;8.244;2022-09-13T02:07:23;100847.53;;;16.28;60.71
10167;BME280;62970;53.130;8.244;2022-09-13T02:09:59;100846.59;;;16.30;60.47
10167;BME280;62970;53.130;8.244;2022-09-13T02:12:31;100853.66;;;16.29;60.43
10167;BME280;62970;53.130;8.244;2022-09-13T02:15:08;100844.03;;;16.28;60.64
10167;BME280;62970;53.130;8.244;2022-09-13T02:17:44;100848.44;;;16.27;60.48
10167;BME280;62970;53.130;8.244;2022-09-13T02:20:22;100844.03;;;16.28;60.28
10167;BME280;62970;53.130;8.244;2022-09-13T02:22:57;100846.69;;;16.28;60.61
10167;BME280;62970;53.130;8.244;2022-09-13T02:25:32;100848.38;;;16.29;60.90
10167;BME280;62970;53.130;8.244;2022-09-13T02:28:09;100844.03;;;16.28;60.38
10167;BME280;62970;53.130;8.244;2022-09-13T02:30:45;100844.03;;;16.28;60.87
10167;BME280;62970;53.130;8.244;2022-09-13T02:33:20;100839.72;;;16.27;60.85
10167;BME280;62970;53.130;8.244;2022-09-13T02:35:59;100831.81;;;16.27;60.70
10167;BME280;62970;53.130;8.244;2022-09-13T02:38:33;100835.38;;;16.26;61.00
10167;BME280;62970;53.130;8.244;2022-09-13T02:41:22;100831.88;;;16.25;60.65
10167;BME280;62970;53.130;8.244;2022-09-13T02:43:58;100827.56;;;16.24;61.14
10167;BME280;62970;53.130;8.244;2022-09-13T02:46:45;100823.28;;;16.22;61.08
10167;BME280;62970;53.130;8.244;2022-09-13T02:49:23;100821.66;;;16.19;60.80
10167;BME280;62970;53.130;8.244;2022-09-13T02:52:06;100815.59;;;16.17;61.01
10167;BME280;62970;53.130;8.244;2022-09-13T02:54:41;100818.25;;;16.17;61.20
10167;BME280;62970;53.130;8.244;2022-09-13T02:57:16;100810.34;;;16.17;61.78
10167;BME280;62970;53.130;8.244;2022-09-13T02:59:48;100821.72;;;16.18;61.44
10167;BME280;62970;53.130;8.244;2022-09-13T03:02:20;100814.75;;;16.17;61.72
10167;BME280;62970;53.130;8.244;2022-09-13T03:04:51;100820.88;;;16.17;61.49
10167;BME280;62970;53.130;8.244;2022-09-13T03:07:23;100824.34;;;16.18;61.97
10167;BME280;62970;53.130;8.244;2022-09-13T03:09:55;100816.38;;;16.19;61.93
10167;BME280;62970;53.130;8.244;2022-09-13T03:12:43;100819.03;;;16.19;61.81
10167;BME280;62970;53.130;8.244;2022-09-13T03:15:26;100815.41;;;16.22;61.92
10167;BME280;62970;53.130;8.244;2022-09-13T03:18:08;100827.63;;;16.23;61.51
10167;BME280;62970;53.130;8.244;2022-09-13T03:20:49;100817.09;;;16.23;62.15
10167;BME280;62970;53.130;8.244;2022-09-13T03:23:41;100813.63;;;16.22;61.82
10167;BME280;62970;53.130;8.244;2022-09-13T03:26:37;100815.31;;;16.23;61.85
10167;BME280;62970;53.130;8.244;2022-09-13T03:29:29;100820.59;;;16.23;61.99
10167;BME280;62970;53.130;8.244;2022-09-13T03:32:17;100829.31;;;16.24;62.26
10167;BME280;62970;53.130;8.244;2022-09-13T03:34:54;100833.66;;;16.25;62.46
10167;BME280;62970;53.130;8.244;2022-09-13T03:37:33;100827.47;;;16.26;61.95
10167;BME280;62970;53.130;8.244;2022-09-13T03:40:11;100828.25;;;16.28;62.49
10167;BME280;62970;53.130;8.244;2022-09-13T03:42:46;100830.81;;;16.30;62.07
10167;BME280;62970;53.130;8.244;2022-09-13T03:45:24;100830.75;;;16.31;62.08
10167;BME280;62970;53.130;8.244;2022-09-13T03:47:55;100837.66;;;16.34;62.49
10167;BME280;62970;53.130;8.244;2022-09-13T03:50:25;100836.72;;;16.35;62.76
10167;BME280;62970;53.130;8.244;2022-09-13T03:52:58;100837.50;;;16.37;62.68
10167;BME280;62970;53.130;8.244;2022-09-13T03:55:32;100840.06;;;16.38;62.64
10167;BME280;62970;53.130;8.244;2022-09-13T03:58:03;100842.63;;;16.40;62.39
10167;BME280;62970;53.130;8.244;2022-09-13T04:00:32;100847.88;;;16.40;62.42
10167;BME280;62970;53.130;8.244;2022-09-13T04:03:01;100839.06;;;16.41;62.77
10167;BME280;62970;53.130;8.244;2022-09-13T04:05:30;100846.91;;;16.42;62.62
10167;BME280;62970;53.130;8.244;2022-09-13T04:07:59;100844.19;;;16.44;62.67
10167;BME280;62970;53.130;8.244;2022-09-13T04:10:34;100841.63;;;16.42;62.96
10167;BME280;62970;53.130;8.244;2022-09-13T04:13:04;100845.13;;;16.43;63.36
10167;BME280;62970;53.130;8.244;2022-09-13T04:15:34;100849.53;;;16.42;63.02
10167;BME280;62970;53.130;8.244;2022-09-13T04:18:03;100833.81;;;16.41;63.57
10167;BME280;62970;53.130;8.244;2022-09-13T04:20:34;100839.13;;;16.39;63.49
10167;BME280;62970;53.130;8.244;2022-09-13T04:23:04;100840.84;;;16.40;63.45
10167;BME280;62970;53.130;8.244;2022-09-13T04:25:38;100839.13;;;16.39;63.43
10167;BME280;62970;53.130;8.244;2022-09-13T04:28:07;100843.47;;;16.40;63.40
10167;BME280;62970;53.130;8.244;2022-09-13T04:30:37;100846.09;;;16.40;63.95
10167;BME280;62970;53.130;8.244;2022-09-13T04:33:06;100847.81;;;16.41;64.12
10167;BME280;62970;53.130;8.244;2022-09-13T04:35:35;100846.03;;;16.42;63.99
10167;BME280;62970;53.130;8.244;2022-09-13T04:38:04;100849.53;;;16.42;64.00
10167;BME280;62970;53.130;8.244;2022-09-13T04:40:36;100845.97;;;16.43;63.99
10167;BME280;62970;53.130;8.244;2022-09-13T04:43:06;100845.13;;;16.43;64.13
10167;BME280;62970;53.130;8.244;2022-09-13T04:45:36;100845.13;;;16.43;64.13
10167;BME280;62970;53.130;8.244;2022-09-13T04:48:06;100849.44;;;16.44;64.33
10167;BME280;62970;53.130;8.244;2022-09-13T04:50:36;100843.34;;;16.43;63.85
10167;BME280;62970;53.130;8.244;2022-09-13T04:53:05;100841.56;;;16.44;64.40
10167;BME280;62970;53.130;8.244;2022-09-13T04:55:37;100852.16;;;16.42;63.97
10167;BME280;62970;53.130;8.244;2022-09-13T04:58:06;100860.91;;;16.43;64.33
10167;BME280;62970;53.130;8.244;2022-09-13T05:00:35;100860.03;;;16.42;64.20
10167;BME280;62970;53.130;8.244;2022-09-13T05:03:05;100858.28;;;16.43;64.43
10167;BME280;62970;53.130;8.244;2022-09-13T05:05:34;100860.03;;;16.42;64.06
10167;BME280;62970;53.130;8.244;2022-09-13T05:08:03;100858.34;;;16.41;64.26
10167;BME280;62970;53.130;8.244;2022-09-13T05:10:32;100848.66;;;16.42;64.52
10167;BME280;62970;53.130;8.244;2022-09-13T05:13:04;100853.06;;;16.41;64.64
10167;BME280;62970;53.130;8.244;2022-09-13T05:15:33;100846.91;;;16.42;64.39
10167;BME280;62970;53.130;8.244;2022-09-13T05:18:03;100846.91;;;16.42;64.86
10167;BME280;62970;53.130;8.244;2022-09-13T05:20:33;100849.44;;;16.44;65.00
10167;BME280;62970;53.130;8.244;2022-09-13T05:23:02;100858.19;;;16.44;65.10
10167;BME280;62970;53.130;8.244;2022-09-13T05:25:31;100859.06;;;16.45;64.67
10167;BME280;62970;53.130;8.244;2022-09-13T05:28:04;100860.75;;;16.46;64.93
10167;BME280;62970;53.130;8.244;2022-09-13T05:30:33;100853.72;;;16.46;64.90
10167;BME280;62970;53.130;8.244;2022-09-13T05:33:02;100851.09;;;16.46;65.10
10167;BME280;62970;53.130;8.244;2022-09-13T05:35:31;100844.91;;;16.47;65.24
10167;BME280;62970;53.130;8.244;2022-09-13T05:38:00;100844.91;;;16.47;65.34
10167;BME280;62970;53.130;8.244;2022-09-13T05:40:29;100837.84;;;16.48;65.37
10167;BME280;62970;53.130;8.244;2022-09-13T05:43:00;100858.75;;;16.51;65.15
10167;BME280;62970;53.130;8.244;2022-09-13T05:45:31;100854.34;;;16.51;65.05
10167;BME280;62970;53.130;8.244;2022-09-13T05:48:01;100851.63;;;16.54;65.52
10167;BME280;62970;53.130;8.244;2022-09-13T05:50:30;100855.88;;;16.57;65.08
10167;BME280;62970;53.130;8.244;2022-09-13T05:53:00;100854.09;;;16.57;65.60
10167;BME280;62970;53.130;8.244;2022-09-13T05:55:29;100864.56;;;16.59;65.32
10167;BME280;62970;53.130;8.244;2022-09-13T05:58:01;100861.00;;;16.60;65.16
10167;BME280;62970;53.130;8.244;2022-09-13T06:00:33;100853.97;;;16.61;65.37
10167;BME280;62970;53.130;8.244;2022-09-13T06:03:03;100854.72;;;16.63;65.65
10167;BME280;62970;53.130;8.244;2022-09-13T06:05:32;100859.06;;;16.64;65.74
10167;BME280;62970;53.130;8.244;2022-09-13T06:08:01;100856.38;;;16.65;65.53
10167;BME280;62970;53.130;8.244;2022-09-13T06:10:31;100863.28;;;16.68;65.50
10167;BME280;62970;53.130;8.244;2022-09-13T06:13:00;100864.03;;;16.70;65.80
10167;BME280;62970;53.130;8.244;2022-09-13T06:15:32;100856.94;;;16.72;65.25
10167;BME280;62970;53.130;8.244;2022-09-13T06:18:02;100857.63;;;16.75;65.57
10167;BME280;62970;53.130;8.244;2022-09-13T06:20:31;100856.56;;;16.79;65.80
10167;BME280;62970;53.130;8.244;2022-09-13T06:23:00;100861.69;;;16.82;65.81
10167;BME280;62970;53.130;8.244;2022-09-13T06:25:29;100863.31;;;16.85;65.74
10167;BME280;62970;53.130;8.244;2022-09-13T06:28:00;100871.91;;;16.88;65.53
10167;BME280;62970;53.130;8.244;2022-09-13T06:30:32;100868.34;;;16.89;65.27
10167;BME280;62970;53.130;8.244;2022-09-13T06:33:01;100876.25;;;16.89;65.34
10167;BME280;62970;53.130;8.244;2022-09-13T06:35:31;100877.88;;;16.92;65.33
10167;BME280;62970;53.130;8.244;2022-09-13T06:38:00;100869.91;;;16.94;65.80
10167;BME280;62970;53.130;8.244;2022-09-13T06:40:29;100867.22;;;16.95;65.50
10167;BME280;62970;53.130;8.244;2022-09-13T06:42:58;100868.84;;;16.98;65.46
10167;BME280;62970;53.130;8.244;2022-09-13T06:45:27;100872.97;;;17.03;65.74
10167;BME280;62970;53.130;8.244;2022-09-13T06:48:02;100876.00;;;17.13;65.60
10167;BME280;62970;53.130;8.244;2022-09-13T06:50:31;100874.59;;;17.23;65.98
10167;BME280;62970;53.130;8.244;2022-09-13T06:53:01;100883.91;;;17.30;65.64
10167;BME280;62970;53.130;8.244;2022-09-13T06:55:30;100881.91;;;17.35;65.76
10167;BME280;62970;53.130;8.244;2022-09-13T06:58:00;100884.38;;;17.38;65.20
10167;BME280;62970;53.130;8.244;2022-09-13T07:00:29;100885.19;;;17.40;65.39
10167;BME280;62970;53.130;8.244;2022-09-13T07:03:01;100882.41;;;17.43;65.26
10167;BME280;62970;53.130;8.244;2022-09-13T07:05:30;100872.63;;;17.45;65.09
10167;BME280;62970;53.130;8.244;2022-09-13T07:08:00;100878.53;;;17.50;65.16
10167;BME280;62970;53.130;8.244;2022-09-13T07:10:29;100877.22;;;17.59;65.23
10167;BME280;62970;53.130;8.244;2022-09-13T07:12:58;100878.44;;;17.69;64.88
10167;BME280;62970;53.130;8.244;2022-09-13T07:15:28;100890.09;;;17.82;65.19
10167;BME280;62970;53.130;8.244;2022-09-13T07:18:00;100885.13;;;17.94;65.37
10167;BME280;62970;53.130;8.244;2022-09-13T07:20:29;100885.16;;;18.09;65.08
10167;BME280;62970;53.130;8.244;2022-09-13T07:22:58;100887.94;;;18.24;64.83
10167;BME280;62970;53.130;8.244;2022-09-13T07:25:27;100887.44;;;18.33;64.68
10167;BME280;62970;53.130;8.244;2022-09-13T07:27:56;100893.31;;;18.38;64.37
10167;BME280;62970;53.130;8.244;2022-09-13T07:30:25;100888.06;;;18.38;64.03
10167;BME280;62970;53.130;8.244;2022-09-13T07:32:54;100892.66;;;18.34;63.90
10167;BME280;62970;53.130;8.244;2022-09-13T07:35:26;100893.81;;;18.29;64.38
10167;BME280;62970;53.130;8.244;2022-09-13T07:37:55;100900.28;;;18.23;63.75
10167;BME280;62970;53.130;8.244;2022-09-13T07:40:24;100899.97;;;18.12;64.40
10167;BME280;62970;53.130;8.244;2022-09-13T07:42:55;100905.88;;;18.00;64.25
10167;BME280;62970;53.130;8.244;2022-09-13T07:45:24;100910.94;;;17.87;64.65
10167;BME280;62970;53.130;8.244;2022-09-13T07:47:54;100913.25;;;17.76;65.02
10167;BME280;62970;53.130;8.244;2022-09-13T07:50:26;100915.50;;;17.66;64.91
10167;BME280;62970;53.130;8.244;2022-09-13T07:52:55;100914.97;;;17.60;65.10
10167;BME280;62970;53.130;8.244;2022-09-13T07:55:24;100915.28;;;17.53;65.07
10167;BME280;62970;53.130;8.244;2022-09-13T07:57:54;100919.00;;;17.49;65.57
10167;BME280;62970;53.130;8.244;2022-09-13T08:00:24;100916.50;;;17.46;65.54
10167;BME280;62970;53.130;8.244;2022-09-13T08:02:54;100922.72;;;17.45;65.46
10167;BME280;62970;53.130;8.244;2022-09-13T08:05:26;100927.91;;;17.47;66.05
10167;BME280;62970;53.130;8.244;2022-09-13T08:07:55;100926.81;;;17.51;65.86
10167;BME280;62970;53.130;8.244;2022-09-13T08:10:24;100932.81;;;17.54;65.72
10167;BME280;62970;53.130;8.244;2022-09-13T08:12:53;100934.19;;;17.62;66.28
10167;BME280;62970;53.130;8.244;2022-09-13T08:15:23;100938.22;;;17.69;65.60
10167;BME280;62970;53.130;8.244;2022-09-13T08:17:52;100941.34;;;17.77;65.95
10167;BME280;62970;53.130;8.244;2022-09-13T08:20:21;100943.28;;;17.91;65.89
10167;BME280;62970;53.130;8.244;2022-09-13T08:22:54;100934.34;;;18.10;66.33
10167;BME280;62970;53.130;8.244;2022-09-13T08:25:23;100930.53;;;18.33;65.72
10167;BME280;62970;53.130;8.244;2022-09-13T08:27:52;100938.66;;;18.62;65.75
10167;BME280;62970;53.130;8.244;2022-09-13T08:30:22;100941.75;;;18.86;65.67
10167;BME280;62970;53.130;8.244;2022-09-13T08:32:58;100940.50;;;19.08;64.85
10167;BME280;62970;53.130;8.244;2022-09-13T08:35:31;100941.06;;;19.29;64.25
10167;BME280;62970;53.130;8.244;2022-09-13T08:38:03;100935.66;;;19.46;63.92
10167;BME280;62970;53.130;8.244;2022-09-13T08:40:40;100941.66;;;19.64;63.79
10167;BME280;62970;53.130;8.244;2022-09-13T08:43:21;100940.50;;;19.84;63.09
10167;BME280;62970;53.130;8.244;2022-09-13T08:46:00;100950.94;;;20.01;62.67
10167;BME280;62970;53.130;8.244;2022-09-13T08:48:34;100947.75;;;20.10;62.34
10167;BME280;62970;53.130;8.244;2022-09-13T08:51:07;100940.28;;;20.17;61.78
10167;BME280;62970;53.130;8.244;2022-09-13T08:53:45;100940.19;;;20.19;61.31
10167;BME280;62970;53.130;8.244;2022-09-13T08:56:22;100936.59;;;20.20;61.11
10167;BME280;62970;53.130;8.244;2022-09-13T08:59:15;100941.22;;;20.16;60.66
10167;BME280;62970;53.130;8.244;2022-09-13T09:02:01;100940.66;;;20.11;60.43
10167;BME280;62970;53.130;8.244;2022-09-13T09:04:40;100954.34;;;20.03;60.44
10167;BME280;62970;53.130;8.244;2022-09-13T09:07:16;100949.31;;;19.99;59.70
10167;BME280;62970;53.130;8.244;2022-09-13T09:09:51;100950.38;;;19.96;59.59
10167;BME280;62970;53.130;8.244;2022-09-13T09:12:32;100943.47;;;19.94;59.51
10167;BME280;62970;53.130;8.244;2022-09-13T09:15:14;100941.56;;;19.96;59.48
10167;BME280;62970;53.130;8.244;2022-09-13T09:17:52;100936.75;;;20.02;59.79
10167;BME280;62970;53.130;8.244;2022-09-13T09:20:27;100944.41;;;20.07;59.33
10167;BME280;62970;53.130;8.244;2022-09-13T09:23:03;100945.28;;;20.07;59.09
10167;BME280;62970;53.130;8.244;2022-09-13T09:25:38;100945.47;;;20.04;58.60
10167;BME280;62970;53.130;8.244;2022-09-13T09:28:12;100937.81;;;20.00;58.83
10167;BME280;62970;53.130;8.244;2022-09-13T09:30:52;100946.59;;;20.00;58.71
10167;BME280;62970;53.130;8.244;2022-09-13T09:33:48;100937.53;;;20.04;58.26
10167;BME280;62970;53.130;8.244;2022-09-13T09:36:29;100938.84;;;20.12;58.16
10167;BME280;62970;53.130;8.244;2022-09-13T09:39:03;100934.88;;;20.19;58.09
10167;BME280;62970;53.130;8.244;2022-09-13T09:41:35;100935.06;;;20.30;57.54
10167;BME280;62970;53.130;8.244;2022-09-13T09:44:16;100944.16;;;20.40;57.38
10167;BME280;62970;53.130;8.244;2022-09-13T09:46:50;100953.03;;;20.39;56.68
10167;BME280;62970;53.130;8.244;2022-09-13T09:49:31;100943.31;;;20.25;56.38
10167;BME280;62970;53.130;8.244;2022-09-13T09:52:17;100949.81;;;20.05;55.74
10167;BME280;62970;53.130;8.244;2022-09-13T09:54:50;100950.06;;;19.87;55.62
10167;BME280;62970;53.130;8.244;2022-09-13T09:57:52;100947.63;;;19.68;56.44
10167;BME280;62970;53.130;8.244;2022-09-13T10:00:24;100952.69;;;19.57;56.02
10167;BME280;62970;53.130;8.244;2022-09-13T10:02:58;100944.34;;;19.49;55.53
10167;BME280;62970;53.130;8.244;2022-09-13T10:05:28;100945.47;;;19.44;55.52
10167;BME280;62970;53.130;8.244;2022-09-13T10:08:01;100942.47;;;19.51;55.12
10167;BME280;62970;53.130;8.244;2022-09-13T10:10:41;100937.41;;;19.62;55.80
10167;BME280;62970;53.130;8.244;2022-09-13T10:13:22;100946.22;;;19.76;54.65
10167;BME280;62970;53.130;8.244;2022-09-13T10:15:53;100937.97;;;19.83;54.13
10167;BME280;62970;53.130;8.244;2022-09-13T10:21:24;100942.41;;;19.82;53.32
10167;BME280;62970;53.130;8.244;2022-09-13T10:24:15;100938.06;;;19.81;53.86
10167;BME280;62970;53.130;8.244;2022-09-13T10:26:46;100940.78;;;19.80;52.39
10167;BME280;62970;53.130;8.244;2022-09-13T10:29:17;100938.56;;;19.72;51.70
10167;BME280;62970;53.130;8.244;2022-09-13T10:31:49;100945.44;;;19.60;51.74
10167;BME280;62970;53.130;8.244;2022-09-13T10:34:25;100949.63;;;19.49;51.98
10167;BME280;62970;53.130;8.244;2022-09-13T10:36:59;100935.50;;;19.34;52.45
10167;BME280;62970;53.130;8.244;2022-09-13T10:39:33;100941.41;;;19.23;51.90
10167;BME280;62970;53.130;8.244;2022-09-13T10:42:06;100946.28;;;19.15;52.20
10167;BME280;62970;53.130;8.244;2022-09-13T10:44:43;100942.97;;;19.11;52.09
10167;BME280;62970;53.130;8.244;2022-09-13T10:47:25;100945.34;;;19.16;52.16
10167;BME280;62970;53.130;8.244;2022-09-13T10:49:57;100943.03;;;19.26;52.13
10167;BME280;62970;53.130;8.244;2022-09-13T10:52:33;100945.06;;;19.36;51.90
10167;BME280;62970;53.130;8.244;2022-09-13T10:55:34;100939.06;;;19.49;52.12
10167;BME280;62970;53.130;8.244;2022-09-13T10:58:17;100941.84;;;19.61;52.19
10167;BME280;62970;53.130;8.244;2022-09-13T11:01:32;100947.44;;;19.71;51.97
10167;BME280;62970;53.130;8.244;2022-09-13T11:08:07;100945.16;;;19.95;51.60
10167;BME280;62970;53.130;8.244;2022-09-13T11:10:49;100947.91;;;20.07;51.37
10167;BME280;62970;53.130;8.244;2022-09-13T11:13:33;100937.53;;;20.19;50.79
10167;BME280;62970;53.130;8.244;2022-09-13T11:16:23;100933.38;;;20.29;50.72
10167;BME280;62970;53.130;8.244;2022-09-13T11:19:20;100934.78;;;20.34;50.22
10167;BME280;62970;53.130;8.244;2022-09-13T11:22:09;100930.84;;;20.41;49.74
10167;BME280;62970;53.130;8.244;2022-09-13T11:24:58;100934.34;;;20.42;49.62
10167;BME280;62970;53.130;8.244;2022-09-13T11:27:40;100940.00;;;20.36;49.32
10167;BME280;62970;53.130;8.244;2022-09-13T11:30:20;100943.13;;;20.28;49.39
10167;BME280;62970;53.130;8.244;2022-09-13T11:33:28;100935.94;;;20.16;49.67
10167;BME280;62970;53.130;8.244;2022-09-13T11:36:44;100930.53;;;20.03;49.91
10167;BME280;62970;53.130;8.244;2022-09-13T11:39:26;100932.03;;;19.93;49.49
10167;BME280;62970;53.130;8.244;2022-09-13T11:42:10;100941.19;;;19.88;49.45
10167;BME280;62970;53.130;8.244;2022-09-13T11:45:01;100939.84;;;19.81;49.61
10167;BME280;62970;53.130;8.244;2022-09-13T11:47:44;100940.00;;;19.77;49.97
10167;BME280;62970;53.130;8.244;2022-09-13T11:50:39;100933.69;;;19.80;49.80
10167;BME280;62970;53.130;8.244;2022-09-13T11:53:42;100925.97;;;19.91;50.17
10167;BME280;62970;53.130;8.244;2022-09-13T11:56:20;100924.19;;;20.06;49.67
10167;BME280;62970;53.130;8.244;2022-09-13T11:58:52;100918.91;;;20.20;49.03
10167;BME280;62970;53.130;8.244;2022-09-13T12:01:28;100918.25;;;20.31;49.15
10167;BME280;62970;53.130;8.244;2022-09-13T12:04:02;100921.38;;;20.37;48.46
10167;BME280;62970;53.130;8.244;2022-09-13T12:06:39;100921.28;;;20.39;47.67
10167;BME280;62970;53.130;8.244;2022-09-13T12:09:14;100922.22;;;20.38;47.91
10167;BME280;62970;53.130;8.244;2022-09-13T12:11:50;100923.06;;;20.38;47.22
10167;BME280;62970;53.130;8.244;2022-09-13T12:14:24;100924.00;;;20.37;47.04
10167;BME280;62970;53.130;8.244;2022-09-13T12:17:01;100931.00;;;20.38;46.69
10167;BME280;62970;53.130;8.244;2022-09-13T12:19:40;100924.78;;;20.39;47.17
10167;BME280;62970;53.130;8.244;2022-09-13T12:22:15;100924.72;;;20.41;46.60
10167;BME280;62970;53.130;8.244;2022-09-13T12:24:50;100929.06;;;20.42;47.06
10167;BME280;62970;53.130;8.244;2022-09-13T12:27:25;100921.22;;;20.40;46.70
10167;BME280;62970;53.130;8.244;2022-09-13T12:30:08;100915.91;;;20.40;46.59
10167;BME280;62970;53.130;8.244;2022-09-13T12:32:42;100915.22;;;20.37;46.25
10167;BME280;62970;53.130;8.244;2022-09-13T12:35:24;100914.56;;;20.33;46.73
10167;BME280;62970;53.130;8.244;2022-09-13T12:38:38;100918.06;;;20.34;47.14
10167;BME280;62970;53.130;8.244;2022-09-13T12:41:27;100907.28;;;20.37;46.57
10167;BME280;62970;53.130;8.244;2022-09-13T12:44:26;100910.53;;;20.42;46.88
10167;BME280;62970;53.130;8.244;2022-09-13T12:47:29;100918.47;;;20.42;46.84
10167;BME280;62970;53.130;8.244;2022-09-13T12:50:25;100909.06;;;20.36;47.21
10167;BME280;62970;53.130;8.244;2022-09-13T12:53:10;100918.81;;;20.36;47.29
10167;BME280;62970;53.130;8.244;2022-09-13T12:56:02;100910.78;;;20.37;47.06
10167;BME280;62970;53.130;8.244;2022-09-13T12:59:06;100914.97;;;20.41;46.15
10167;BME280;62970;53.130;8.244;2022-09-13T13:01:44;100909.28;;;20.48;46.93
10167;BME280;62970;53.130;8.244;2022-09-13T13:04:17;100916.00;;;20.53;46.95
10167;BME280;62970;53.130;8.244;2022-09-13T13:06:51;100912.91;;;20.61;46.67
10167;BME280;62970;53.130;8.244;2022-09-13T13:09:27;100920.44;;;20.67;46.18
10167;BME280;62970;53.130;8.244;2022-09-13T13:12:02;100918.72;;;20.80;46.21
10167;BME280;62970;53.130;8.244;2022-09-13T13:14:47;100917.84;;;20.94;46.10
10167;BME280;62970;53.130;8.244;2022-09-13T13:17:44;100918.00;;;21.05;45.72
10167;BME280;62970;53.130;8.244;2022-09-13T13:20:46;100921.94;;;21.12;45.22
10167;BME280;62970;53.130;8.244;2022-09-13T13:23:25;100913.25;;;21.10;44.92
10167;BME280;62970;53.130;8.244;2022-09-13T13:26:12;100915.25;;;21.07;44.99
10167;BME280;62970;53.130;8.244;2022-09-13T13:29:13;100903.13;;;21.02;44.42
10167;BME280;62970;53.130;8.244;2022-09-13T13:32:10;100903.34;;;20.99;44.90
10167;BME280;62970;53.130;8.244;2022-09-13T13:34:43;100909.38;;;21.01;44.10
10167;BME280;62970;53.130;8.244;2022-09-13T13:37:35;100906.75;;;21.01;44.18
10167;BME280;62970;53.130;8.244;2022-09-13T13:40:20;100906.09;;;20.98;44.64
10167;BME280;62970;53.130;8.244;2022-09-13T13:46:26;100911.53;;;20.82;44.65
10167;BME280;62970;53.130;8.244;2022-09-13T13:49:41;100920.16;;;20.71;44.57
10167;BME280;62970;53.130;8.244;2022-09-13T13:52:37;100909.59;;;20.57;44.69
10167;BME280;62970;53.130;8.244;2022-09-13T13:55:38;100911.19;;;20.46;44.57
10167;BME280;62970;53.130;8.244;2022-09-13T13:58:32;100910.97;;;20.34;44.55